Time;durP1;ratioP1;P1;durP2;ratioP2;P2;SDS_P1;SDS_P2;PMS_P1;PMS_P2;Temp;Humidity;BMP_temperature;BMP_pressure;BME280_temperature;BME280_humidity;BME280_pressure;Samples;Min_cycle;Max_cycle;Signal;HPM_P1;HPM_P2
2023/07/26 00:02:26;;;;;;;2.85;2.10;;;;;;;13.36;84.76;101161.72;6162264;23;20010;-75
2023/07/26 00:04:52;;;;;;;2.58;2.13;;;;;;;13.37;84.57;101163.22;6189306;23;20026;-75
2023/07/26 00:07:19;;;;;;;3.60;2.08;;;;;;;13.35;84.64;101162.91;6188429;23;20446;-75
2023/07/26 00:09:45;;;;;;;2.22;1.90;;;;;;;13.33;85.46;101162.63;6187946;23;20439;-75
2023/07/26 00:12:12;;;;;;;2.00;1.90;;;;;;;13.30;84.90;101155.50;6189068;23;20084;-75
2023/07/26 00:14:38;;;;;;;3.35;2.45;;;;;;;13.27;85.02;101154.47;6188561;23;20028;-75
2023/07/26 00:17:05;;;;;;;3.17;2.10;;;;;;;13.25;85.23;101158.75;6188881;23;20154;-75
2023/07/26 00:19:32;;;;;;;2.38;2.25;;;;;;;13.22;85.76;101162.34;6162198;23;20024;-75
2023/07/26 00:21:59;;;;;;;2.10;1.92;;;;;;;13.19;85.38;101160.56;6137584;23;20018;-75
2023/07/26 00:24:25;;;;;;;2.15;2.05;;;;;;;13.17;85.57;101162.94;6188271;23;20025;-74
2023/07/26 00:26:52;;;;;;;2.60;2.40;;;;;;;13.10;86.08;101160.53;6162269;23;20017;-75
2023/07/26 00:29:18;;;;;;;3.72;2.13;;;;;;;13.05;85.79;101161.88;6156663;23;20436;-75
2023/07/26 00:31:45;;;;;;;5.13;2.00;;;;;;;12.99;85.86;101161.72;6159194;23;20045;-75
2023/07/26 00:34:12;;;;;;;4.85;2.40;;;;;;;12.94;85.50;101159.66;6159289;23;20089;-75
2023/07/26 00:36:38;;;;;;;2.15;2.05;;;;;;;12.91;85.83;101160.53;6157992;23;20021;-75
2023/07/26 00:39:05;;;;;;;2.40;1.95;;;;;;;12.86;86.97;101155.03;6157290;23;20010;-75
2023/07/26 00:41:31;;;;;;;2.35;2.15;;;;;;;12.78;87.35;101157.28;6158429;23;20048;-75
2023/07/26 00:43:59;;;;;;;2.67;2.17;;;;;;;12.74;86.95;101155.94;6157209;23;20030;-75
2023/07/26 00:46:26;;;;;;;2.50;2.30;;;;;;;12.69;86.86;101165.28;6158421;23;20070;-74
2023/07/26 00:48:53;;;;;;;2.70;2.40;;;;;;;12.65;87.43;101162.75;6159340;23;20018;-75
2023/07/26 00:51:21;;;;;;;2.38;1.95;;;;;;;12.59;87.53;101158.44;6156171;23;20030;-75
2023/07/26 00:53:48;;;;;;;2.33;2.20;;;;;;;12.57;86.78;101161.53;6159122;23;20365;-75
2023/07/26 00:56:14;;;;;;;6.13;2.13;;;;;;;12.51;87.22;101157.97;6158921;23;20013;-75
2023/07/26 00:58:41;;;;;;;3.90;2.17;;;;;;;12.48;87.76;101161.50;6158377;23;20048;-75
2023/07/26 01:01:08;;;;;;;2.08;1.98;;;;;;;12.46;88.22;101163.13;6158921;23;20456;-74
2023/07/26 01:03:34;;;;;;;2.60;2.40;;;;;;;12.43;88.43;101159.41;6158353;23;20069;-75
2023/07/26 01:06:04;;;;;;;2.47;2.33;;;;;;;12.42;88.17;101157.19;6156716;23;20018;-75
2023/07/26 01:08:58;;;;;;;2.20;2.10;;;;;;;12.42;88.32;101151.84;6158239;23;20025;-74
2023/07/26 01:11:35;;;;;;;2.35;2.15;;;;;;;12.34;88.25;101156.75;6156661;23;20083;-74
2023/07/26 01:14:13;;;;;;;3.95;2.40;;;;;;;12.31;88.30;101155.69;6158862;23;20423;-75
2023/07/26 01:16:41;;;;;;;2.28;2.08;;;;;;;12.26;88.77;101152.88;6158007;23;20020;-75
2023/07/26 01:19:08;;;;;;;2.33;2.20;;;;;;;12.23;89.07;101151.81;6156951;23;20452;-75
2023/07/26 01:21:35;;;;;;;2.25;2.15;;;;;;;12.21;89.54;101156.09;6155538;23;20022;-75
2023/07/26 01:24:01;;;;;;;2.47;2.28;;;;;;;12.18;88.98;101146.31;6156946;23;20033;-75
2023/07/26 01:26:28;;;;;;;4.75;2.45;;;;;;;12.13;89.46;101144.22;6156460;23;20115;-75
2023/07/26 01:28:55;;;;;;;2.70;2.50;;;;;;;12.09;89.35;101147.03;6174814;23;20010;-75
2023/07/26 01:31:24;;;;;;;3.70;2.50;;;;;;;12.07;89.87;101144.03;6187933;23;20021;-74
2023/07/26 01:33:52;;;;;;;3.67;2.67;;;;;;;12.03;89.95;101143.44;6188556;23;20443;-75
2023/07/26 01:36:22;;;;;;;3.20;2.97;;;;;;;11.96;90.76;101141.81;6160109;23;20048;-74
2023/07/26 01:38:50;;;;;;;3.00;2.80;;;;;;;11.94;90.89;101135.41;6188554;23;20014;-74
2023/07/26 01:41:19;;;;;;;4.07;3.00;;;;;;;11.88;90.28;101139.84;6187266;23;20059;-74
2023/07/26 01:43:46;;;;;;;3.53;2.63;;;;;;;11.83;90.36;101145.72;6188337;23;20451;-75
2023/07/26 01:46:13;;;;;;;2.58;2.40;;;;;;;11.79;90.76;101145.88;6161911;23;20473;-74
2023/07/26 01:48:40;;;;;;;3.10;2.80;;;;;;;11.75;91.07;101144.47;6187723;23;20348;-74
2023/07/26 01:51:07;;;;;;;3.20;2.90;;;;;;;11.70;90.35;101140.44;6160898;23;20953;-75
2023/07/26 01:53:34;;;;;;;3.22;3.00;;;;;;;11.69;90.72;101150.38;6162379;23;20028;-75
2023/07/26 01:56:02;;;;;;;3.95;2.70;;;;;;;11.64;90.06;101153.59;6189780;23;20017;-75
2023/07/26 01:58:29;;;;;;;2.80;2.63;;;;;;;11.61;90.29;101157.13;6189074;23;20017;-75
2023/07/26 02:00:57;;;;;;;3.05;2.72;;;;;;;11.58;90.45;101155.38;6162839;23;20021;-75
2023/07/26 02:03:23;;;;;;;2.50;2.30;;;;;;;11.52;90.58;101157.09;6161811;23;20021;-74
2023/07/26 02:05:50;;;;;;;2.92;2.60;;;;;;;11.47;91.01;101162.25;6162946;23;20032;-74
2023/07/26 02:08:17;;;;;;;2.53;2.33;;;;;;;11.46;90.21;101144.78;6162917;23;20436;-75
2023/07/26 02:10:44;;;;;;;3.00;2.80;;;;;;;11.44;91.28;101153.19;6162925;23;20452;-74
2023/07/26 02:13:11;;;;;;;7.07;2.90;;;;;;;11.40;91.01;101149.91;6189620;23;20447;-75
2023/07/26 02:15:37;;;;;;;3.45;3.25;;;;;;;11.36;91.51;101143.97;6188999;23;20020;-75
2023/07/26 02:18:04;;;;;;;3.80;3.28;;;;;;;11.31;91.83;101147.91;6189128;23;20017;-75
2023/07/26 02:20:31;;;;;;;2.80;2.60;;;;;;;11.25;91.83;101143.59;6137752;23;20467;-75
2023/07/26 02:22:57;;;;;;;2.85;2.65;;;;;;;11.21;91.77;101148.28;6163275;23;20013;-75
2023/07/26 02:25:24;;;;;;;2.55;2.38;;;;;;;11.21;91.49;101148.28;6189002;23;20476;-75
2023/07/26 02:27:56;;;;;;;;;;;;;;;11.21;91.11;101148.28;6163413;23;20076;-75
2023/07/26 02:30:22;;;;;;;3.05;2.35;;;;;;;11.17;91.59;101148.44;6162341;23;19943;-75
2023/07/26 02:32:49;;;;;;;2.80;2.60;;;;;;;11.14;91.85;101145.88;6162241;23;20025;-75
2023/07/26 02:35:17;;;;;;;3.40;3.10;;;;;;;11.09;92.21;101149.09;6162772;23;20021;-75
2023/07/26 02:37:43;;;;;;;2.83;2.65;;;;;;;11.05;92.29;101146.56;6189630;23;20021;-75
2023/07/26 02:40:11;;;;;;;3.72;2.53;;;;;;;11.01;92.06;101146.69;6163373;23;20024;-75
2023/07/26 02:42:37;;;;;;;2.47;2.15;;;;;;;11.00;92.21;101142.53;6188931;23;20526;-75
2023/07/26 02:45:05;;;;;;;3.85;2.60;;;;;;;10.99;92.45;101138.38;6162916;23;20456;-75
2023/07/26 02:47:32;;;;;;;3.10;2.90;;;;;;;10.96;92.13;101130.50;6188278;23;20444;-75
2023/07/26 02:50:01;;;;;;;3.53;2.53;;;;;;;10.93;92.27;101134.75;6138377;23;20018;-75
2023/07/26 02:52:28;;;;;;;3.08;2.88;;;;;;;10.89;92.44;101138.72;6188822;23;20017;-75
2023/07/26 02:54:54;;;;;;;2.90;2.75;;;;;;;10.84;93.20;101141.94;6163424;23;20092;-75
2023/07/26 02:57:21;;;;;;;2.90;2.70;;;;;;;10.81;93.34;101138.22;6188800;23;20024;-75
2023/07/26 02:59:47;;;;;;;2.95;2.75;;;;;;;10.80;93.11;101144.72;6189505;23;20010;-75
2023/07/26 03:02:14;;;;;;;2.78;2.58;;;;;;;10.78;92.64;101146.34;6162209;23;20022;-75
2023/07/26 03:04:41;;;;;;;2.90;2.70;;;;;;;10.74;92.98;101146.44;6188558;23;20051;-75
2023/07/26 03:07:09;;;;;;;3.10;2.80;;;;;;;10.72;92.56;101138.16;6162931;23;20022;-75
2023/07/26 03:09:35;;;;;;;3.03;2.72;;;;;;;10.68;92.99;101138.25;6188729;23;20096;-75
2023/07/26 03:12:02;;;;;;;3.10;2.88;;;;;;;10.65;93.03;101136.44;6189607;23;20017;-75
2023/07/26 03:14:29;;;;;;;3.25;3.05;;;;;;;10.63;93.02;101144.13;6162234;23;20108;-75
2023/07/26 03:16:55;;;;;;;3.17;2.97;;;;;;;10.61;92.63;101148.38;6189098;23;20496;-75
2023/07/26 03:19:37;;;;;;;2.72;2.53;;;;;;;10.53;92.77;101141.78;6162200;23;20142;-75
2023/07/26 03:22:04;;;;;;;3.42;3.20;;;;;;;10.50;92.93;101140.72;6162666;23;20053;-75
2023/07/26 03:24:31;;;;;;;2.97;2.78;;;;;;;10.45;92.86;101149.25;6188525;23;20018;-75
2023/07/26 03:26:57;;;;;;;3.92;2.80;;;;;;;10.43;93.28;101148.19;6189685;23;20013;-75
2023/07/26 03:29:24;;;;;;;3.25;2.80;;;;;;;10.42;93.53;101152.78;6188423;23;20021;-74
2023/07/26 03:31:51;;;;;;;2.78;2.67;;;;;;;10.41;93.00;101151.28;6162017;23;20076;-75
2023/07/26 03:34:19;;;;;;;2.50;2.40;;;;;;;10.42;93.12;101155.44;6188671;23;20099;-75
2023/07/26 03:36:46;;;;;;;2.97;2.78;;;;;;;10.40;93.52;101151.75;6162711;23;20022;-75
2023/07/26 03:39:12;;;;;;;3.10;2.90;;;;;;;10.40;93.68;101151.75;6189311;23;20068;-75
2023/07/26 03:41:40;;;;;;;2.80;2.70;;;;;;;10.39;93.11;101155.56;6162095;23;20467;-75
2023/07/26 03:44:07;;;;;;;3.00;2.80;;;;;;;10.38;93.61;101154.81;6162754;23;20013;-75
2023/07/26 03:46:33;;;;;;;2.90;2.70;;;;;;;10.37;93.42;101152.59;6188122;23;20022;-75
2023/07/26 03:49:03;;;;;;;4.45;3.10;;;;;;;10.37;93.46;101155.25;6189032;23;20020;-75
2023/07/26 03:51:30;;;;;;;2.90;2.72;;;;;;;10.38;93.44;101154.81;6188448;23;20017;-74
2023/07/26 03:53:56;;;;;;;5.22;3.20;;;;;;;10.36;93.97;101154.50;6189067;23;20024;-74
2023/07/26 03:56:23;;;;;;;3.10;2.90;;;;;;;10.36;93.78;101154.50;6188259;23;20469;-74
2023/07/26 03:58:49;;;;;;;3.13;2.92;;;;;;;10.34;94.62;101152.28;6189057;23;20100;-73
2023/07/26 04:01:16;;;;;;;3.95;3.53;;;;;;;10.34;94.59;101149.59;6161868;23;20080;-75
2023/07/26 04:03:43;;;;;;;4.05;3.75;;;;;;;10.36;95.72;101146.53;6162380;23;20076;-74
2023/07/26 04:06:13;;;;;;;5.13;3.35;;;;;;;10.38;95.43;101146.09;6189049;23;20444;-75
2023/07/26 04:08:40;;;;;;;7.30;4.47;;;;;;;10.39;96.42;101139.59;6188509;23;20018;-74
2023/07/26 04:11:07;;;;;;;4.47;4.07;;;;;;;10.40;96.96;101149.78;6189210;23;20053;-74
2023/07/26 04:13:34;;;;;;;5.03;4.63;;;;;;;10.42;96.95;101144.03;6188471;23;20013;-74
2023/07/26 04:16:00;;;;;;;6.18;5.55;;;;;;;10.44;97.15;101147.75;6161594;23;20013;-74
2023/07/26 04:18:27;;;;;;;5.25;4.60;;;;;;;10.47;97.55;101146.16;6188451;23;20073;-74
2023/07/26 04:20:54;;;;;;;4.65;4.35;;;;;;;10.49;97.66;101147.22;6189045;23;20104;-74
2023/07/26 04:23:21;;;;;;;4.63;4.32;;;;;;;10.53;98.39;101142.53;6188364;23;20426;-73
2023/07/26 04:25:49;;;;;;;4.40;4.07;;;;;;;10.58;98.06;101141.25;6189088;23;20466;-75
2023/07/26 04:28:16;;;;;;;4.80;4.50;;;;;;;10.60;99.05;101147.66;6188911;23;20084;-74
2023/07/26 04:30:44;;;;;;;4.63;4.32;;;;;;;10.63;98.54;101144.13;6188237;23;20017;-74
2023/07/26 04:33:11;;;;;;;4.90;4.40;;;;;;;10.69;98.80;101144.34;6189118;23;20018;-74
2023/07/26 04:35:38;;;;;;;6.68;4.50;;;;;;;10.71;99.29;101144.66;6188401;23;20076;-74
2023/07/26 04:38:04;;;;;;;6.43;4.65;;;;;;;10.73;99.63;101142.28;6189072;23;20097;-74
2023/07/26 04:40:31;;;;;;;5.25;4.40;;;;;;;10.77;99.66;101137.59;6188366;23;20017;-74
2023/07/26 04:42:57;;;;;;;5.53;4.35;;;;;;;10.80;99.46;101139.38;6188571;23;20069;-75
2023/07/26 04:45:24;;;;;;;5.05;4.57;;;;;;;10.82;100.00;101145.03;6188597;23;20068;-75
2023/07/26 04:47:50;;;;;;;6.03;4.90;;;;;;;10.83;100.00;101154.50;6189136;23;20432;-74
2023/07/26 04:50:17;;;;;;;5.85;5.35;;;;;;;10.87;100.00;101143.72;6188697;23;20100;-74
2023/07/26 04:52:44;;;;;;;8.70;5.38;;;;;;;10.88;100.00;101151.28;6188709;23;20073;-74
2023/07/26 04:55:10;;;;;;;6.22;5.63;;;;;;;10.90;100.00;101156.19;6188826;23;20478;-74
2023/07/26 04:57:38;;;;;;;5.53;5.03;;;;;;;10.96;100.00;101163.22;6187486;23;20423;-74
2023/07/26 05:00:08;;;;;;;5.78;5.28;;;;;;;11.03;100.00;101164.88;6188910;23;20021;-74
2023/07/26 05:02:35;;;;;;;7.55;5.72;;;;;;;11.06;100.00;101164.03;6161210;23;20013;-74
2023/07/26 05:05:02;;;;;;;6.13;5.53;;;;;;;11.15;100.00;101158.78;6188663;23;20476;-74
2023/07/26 05:07:28;;;;;;;5.63;5.18;;;;;;;11.40;100.00;101160.56;6188043;23;20435;-74
2023/07/26 05:09:55;;;;;;;5.80;5.32;;;;;;;11.60;99.52;101155.66;6188356;23;20025;-74
2023/07/26 05:12:21;;;;;;;6.03;5.40;;;;;;;11.59;99.21;101150.78;6187440;23;20089;-74
2023/07/26 05:14:48;;;;;;;6.13;5.60;;;;;;;11.56;99.31;101152.41;6189008;23;20013;-74
2023/07/26 05:17:14;;;;;;;9.00;5.85;;;;;;;11.59;100.00;101164.13;6188792;23;20062;-74
2023/07/26 05:19:41;;;;;;;6.35;5.78;;;;;;;11.67;100.00;101173.31;6187922;23;20022;-74
2023/07/26 05:22:08;;;;;;;6.60;6.10;;;;;;;11.71;100.00;101168.59;6188720;23;20013;-75
2023/07/26 05:24:37;;;;;;;6.43;5.80;;;;;;;11.78;100.00;101165.72;6187791;23;20018;-75
2023/07/26 05:27:04;;;;;;;7.13;6.18;;;;;;;11.84;100.00;101165.91;6188049;23;20131;-75
2023/07/26 05:29:31;;;;;;;5.97;5.40;;;;;;;11.88;99.79;101153.91;6188924;23;20048;-74
2023/07/26 05:31:57;;;;;;;7.18;6.10;;;;;;;11.96;99.60;101157.06;6189740;23;20013;-75
2023/07/26 05:34:24;;;;;;;7.03;5.35;;;;;;;12.03;99.58;101156.78;6189200;23;20013;-75
2023/07/26 05:36:51;;;;;;;6.72;5.85;;;;;;;12.12;99.45;101169.41;6189518;23;20049;-76
2023/07/26 05:39:18;;;;;;;6.28;5.70;;;;;;;12.26;99.86;101171.56;6189396;23;20360;-75
2023/07/26 05:41:44;;;;;;;5.93;5.43;;;;;;;12.42;99.87;101165.19;6162585;23;20053;-75
2023/07/26 05:44:11;;;;;;;6.07;5.47;;;;;;;12.51;99.16;101173.25;6189717;23;20053;-75
2023/07/26 05:46:38;;;;;;;6.05;5.43;;;;;;;12.57;98.85;101172.22;6188826;23;20023;-76
2023/07/26 05:49:04;;;;;;;6.57;5.90;;;;;;;12.65;98.62;101175.34;6189543;23;20021;-75
2023/07/26 05:51:31;;;;;;;6.57;5.97;;;;;;;12.70;97.75;101177.44;6188884;23;20068;-75
2023/07/26 05:53:58;;;;;;;6.93;5.63;;;;;;;12.72;98.56;101177.00;6189849;23;20388;-74
2023/07/26 05:56:24;;;;;;;6.60;5.97;;;;;;;12.73;98.51;101173.88;6188543;23;20474;-75
2023/07/26 05:58:51;;;;;;;6.57;5.85;;;;;;;12.76;98.73;101181.03;6189753;23;20021;-75
2023/07/26 06:01:17;;;;;;;8.60;6.13;;;;;;;12.77;99.01;101185.19;6189528;23;20020;-75
2023/07/26 06:03:45;;;;;;;6.47;5.90;;;;;;;12.80;99.84;101194.22;6163014;23;20021;-75
2023/07/26 06:06:12;;;;;;;7.07;6.20;;;;;;;12.83;100.00;101199.41;6163662;23;20024;-75
2023/07/26 06:08:38;;;;;;;6.80;5.95;;;;;;;12.85;100.00;101204.31;6189022;23;20436;-75
2023/07/26 06:11:05;;;;;;;6.25;5.70;;;;;;;12.86;100.00;101208.47;6189271;23;20018;-75
2023/07/26 06:13:31;;;;;;;8.63;6.05;;;;;;;12.86;100.00;101209.22;6188698;23;20024;-75
2023/07/26 06:15:58;;;;;;;6.45;5.95;;;;;;;12.88;100.00;101217.53;6189934;23;20014;-75
2023/07/26 06:18:25;;;;;;;6.90;5.72;;;;;;;12.89;100.00;101224.34;6162543;23;20021;-75
2023/07/26 06:20:51;;;;;;;9.10;5.75;;;;;;;12.89;100.00;101224.34;6189806;23;20041;-75
2023/07/26 06:23:18;;;;;;;6.78;6.13;;;;;;;12.91;100.00;101239.94;6162950;23;20029;-75
2023/07/26 06:25:45;;;;;;;6.82;6.15;;;;;;;12.88;100.00;101240.84;6189026;23;20100;-74
2023/07/26 06:28:12;;;;;;;8.13;6.18;;;;;;;12.88;100.00;101248.84;6189491;23;20022;-75
2023/07/26 06:30:38;;;;;;;10.98;6.90;;;;;;;12.86;100.00;101257.31;6162949;23;20112;-76
2023/07/26 06:33:05;;;;;;;13.70;6.53;;;;;;;12.85;100.00;101258.50;6190026;23;20013;-76
2023/07/26 06:35:32;;;;;;;11.38;6.85;;;;;;;12.85;100.00;101255.06;6189128;23;20575;-76
2023/07/26 06:37:58;;;;;;;10.75;6.72;;;;;;;12.85;100.00;101271.09;6189493;23;20021;-76
2023/07/26 06:40:25;;;;;;;9.77;7.18;;;;;;;12.86;100.00;101267.25;6188364;23;20478;-76
2023/07/26 06:42:52;;;;;;;7.63;6.78;;;;;;;12.86;100.00;101273.34;6189517;23;20422;-77
2023/07/26 06:45:18;;;;;;;8.43;6.80;;;;;;;12.86;100.00;101273.34;6162504;23;20021;-79
2023/07/26 06:47:46;;;;;;;9.05;6.97;;;;;;;12.85;100.00;101282.53;6189264;23;20052;-76
2023/07/26 06:50:12;;;;;;;7.43;6.72;;;;;;;12.81;100.00;101289.19;6162831;23;20046;-76
2023/07/26 06:52:39;;;;;;;6.93;6.32;;;;;;;12.75;100.00;101289.06;6188949;23;20436;-76
2023/07/26 06:55:06;;;;;;;5.25;4.75;;;;;;;12.65;100.00;101280.28;6189297;23;20013;-75
2023/07/26 06:57:32;;;;;;;5.95;3.60;;;;;;;12.64;100.00;101262.00;6188737;23;20018;-75
2023/07/26 06:59:59;;;;;;;4.13;3.10;;;;;;;12.59;100.00;101251.91;6189511;23;20045;-75
2023/07/26 07:02:26;;;;;;;2.65;2.45;;;;;;;12.54;100.00;101252.47;6162034;23;20048;-76
2023/07/26 07:04:52;;;;;;;2.92;2.50;;;;;;;12.56;100.00;101244.78;6189292;23;20014;-77
2023/07/26 07:07:19;;;;;;;3.17;2.55;;;;;;;12.58;100.00;101237.06;6188377;23;20025;-76
2023/07/26 07:09:45;;;;;;;2.22;2.03;;;;;;;12.62;100.00;101241.09;6189076;23;20013;-78
2023/07/26 07:12:12;;;;;;;2.92;2.00;;;;;;;12.78;100.00;101242.03;6189565;23;20018;-75
2023/07/26 07:14:38;;;;;;;3.83;2.17;;;;;;;12.85;100.00;101247.81;6188708;23;20024;-76
2023/07/26 07:17:05;;;;;;;2.15;2.05;;;;;;;12.96;100.00;101250.81;6189225;23;20459;-75
2023/07/26 07:19:32;;;;;;;1.85;1.75;;;;;;;13.07;100.00;101249.63;6188529;23;20077;-76
2023/07/26 07:21:58;;;;;;;2.67;1.90;;;;;;;13.13;100.00;101253.22;6189361;23;20392;-76
2023/07/26 07:24:25;;;;;;;2.00;1.90;;;;;;;13.16;100.00;101263.03;6187798;23;20013;-75
2023/07/26 07:26:51;;;;;;;4.80;2.10;;;;;;;13.10;100.00;101262.84;6188729;23;20056;-76
2023/07/26 07:29:18;;;;;;;3.45;2.38;;;;;;;13.05;99.96;101268.78;6156827;23;20021;-75
2023/07/26 07:31:45;;;;;;;2.33;2.22;;;;;;;12.98;99.73;101259.13;6159491;23;20440;-76
2023/07/26 07:34:11;;;;;;;2.65;2.22;;;;;;;12.97;100.00;101264.91;6159269;23;20014;-77
2023/07/26 07:36:38;;;;;;;2.47;2.38;;;;;;;12.98;100.00;101261.78;6158562;23;20454;-77
2023/07/26 07:39:07;;;;;;;2.70;2.50;;;;;;;13.22;100.00;101263.91;6158597;23;20018;-77
2023/07/26 07:41:36;;;;;;;2.90;2.70;;;;;;;13.54;100.00;101260.69;6157209;23;20423;-77
2023/07/26 07:44:03;;;;;;;2.95;2.60;;;;;;;13.87;100.00;101262.72;6159107;23;20018;-77
2023/07/26 07:46:30;;;;;;;3.15;2.55;;;;;;;14.16;100.00;101265.59;6158508;23;20467;-78
2023/07/26 07:48:56;;;;;;;2.60;2.40;;;;;;;14.55;100.00;101266.53;6158772;23;20436;-78
2023/07/26 07:51:23;;;;;;;5.07;2.30;;;;;;;14.76;97.79;101267.47;6156135;23;20445;-78
2023/07/26 07:53:49;;;;;;;2.67;2.10;;;;;;;15.05;97.73;101264.16;6159376;23;20050;-78
2023/07/26 07:56:16;;;;;;;3.67;2.22;;;;;;;15.36;97.02;101263.78;6159266;23;20049;-77
2023/07/26 07:58:43;;;;;;;2.40;2.30;;;;;;;15.58;94.64;101258.84;6158821;23;20024;-77
2023/07/26 08:01:09;;;;;;;2.63;2.47;;;;;;;15.68;93.13;101257.53;6157834;23;20045;-78
2023/07/26 08:03:36;;;;;;;2.58;2.20;;;;;;;15.84;91.57;101258.31;6158512;23;20430;-78
2023/07/26 08:06:03;;;;;;;2.50;2.30;;;;;;;15.94;89.14;101251.63;6158671;23;20423;-78
2023/07/26 08:08:30;;;;;;;2.30;2.20;;;;;;;16.15;89.97;101253.19;6158504;23;20470;-78
2023/07/26 08:10:56;;;;;;;2.30;2.20;;;;;;;16.28;88.62;101256.31;6159463;23;20426;-78
2023/07/26 08:13:23;;;;;;;2.25;2.15;;;;;;;16.52;87.72;101255.41;6158588;23;20018;-78
2023/07/26 08:15:49;;;;;;;2.85;2.65;;;;;;;16.76;86.38;101253.34;6157684;23;20022;-78
2023/07/26 08:18:16;;;;;;;3.15;2.63;;;;;;;16.77;84.59;101262.16;6159033;23;20018;-78
2023/07/26 08:20:43;;;;;;;2.60;2.50;;;;;;;16.94;86.13;101263.81;6158492;23;20516;-78
2023/07/26 08:23:09;;;;;;;3.38;3.17;;;;;;;17.22;86.51;101266.81;6157992;23;20013;-78
2023/07/26 08:25:37;;;;;;;3.33;3.10;;;;;;;17.51;85.81;101268.59;6158732;23;20025;-79
2023/07/26 08:28:03;;;;;;;3.33;3.03;;;;;;;17.73;84.95;101264.66;6164499;23;20072;-77
2023/07/26 08:30:30;;;;;;;3.50;3.30;;;;;;;18.06;85.25;101266.88;6188578;23;20352;-76
2023/07/26 08:32:56;;;;;;;3.38;3.17;;;;;;;18.42;84.63;101258.06;6188773;23;20017;-78
2023/07/26 08:35:24;;;;;;;3.45;3.15;;;;;;;18.59;83.17;101269.69;6187814;23;20068;-77
2023/07/26 08:37:51;;;;;;;9.07;3.95;;;;;;;18.43;79.38;101269.59;6189007;23;20426;-74
2023/07/26 08:40:18;;;;;;;3.83;3.47;;;;;;;18.23;81.96;101265.81;6188643;23;20024;-75
2023/07/26 08:42:45;;;;;;;3.60;3.30;;;;;;;18.10;81.68;101270.09;6189258;23;20064;-77
2023/07/26 08:45:12;;;;;;;3.33;3.13;;;;;;;18.08;83.13;101269.84;6189149;23;20017;-76
2023/07/26 08:47:39;;;;;;;3.88;3.40;;;;;;;18.03;80.49;101270.53;6188031;23;20022;-75
2023/07/26 08:50:07;;;;;;;4.15;3.22;;;;;;;17.95;81.50;101265.59;6188396;23;20021;-75
2023/07/26 08:52:34;;;;;;;4.13;3.08;;;;;;;18.05;83.25;101266.16;6188078;23;20072;-74
2023/07/26 08:55:01;;;;;;;3.75;3.20;;;;;;;18.17;82.81;101266.97;6162208;23;20028;-74
2023/07/26 08:57:28;;;;;;;4.78;3.33;;;;;;;18.22;82.21;101258.19;6188502;23;20413;-74
2023/07/26 08:59:55;;;;;;;3.95;3.30;;;;;;;18.47;82.69;101256.63;6188969;23;20400;-73
2023/07/26 09:02:23;;;;;;;3.55;3.25;;;;;;;18.93;81.67;101264.47;6188108;23;20013;-73
2023/07/26 09:04:50;;;;;;;3.55;3.25;;;;;;;19.31;80.18;101249.63;6188272;23;20073;-74
2023/07/26 09:07:18;;;;;;;4.88;3.42;;;;;;;19.69;79.27;101256.34;6188492;23;20021;-74
2023/07/26 09:09:44;;;;;;;5.07;3.80;;;;;;;20.06;77.90;101255.34;6188399;23;20423;-74
2023/07/26 09:12:23;;;;;;;8.73;4.07;;;;;;;20.46;74.80;101245.97;6188495;23;20507;-74
2023/07/26 09:14:52;;;;;;;3.50;3.30;;;;;;;20.38;70.93;101247.72;6189060;23;20232;-75
2023/07/26 09:17:19;;;;;;;3.63;3.28;;;;;;;19.70;71.00;101244.31;6187782;23;20021;-73
2023/07/26 09:19:46;;;;;;;4.47;3.60;;;;;;;19.59;72.75;101249.72;6188121;23;20448;-74
2023/07/26 09:22:12;;;;;;;4.35;2.90;;;;;;;19.93;72.11;101250.47;6188578;23;20013;-74
2023/07/26 09:24:40;;;;;;;4.18;2.92;;;;;;;19.89;70.18;101245.31;6187952;23;20025;-75
2023/07/26 09:27:09;;;;;;;5.35;3.40;;;;;;;19.43;75.05;101263.91;6162011;23;20029;-77
2023/07/26 09:29:38;;;;;;;4.40;3.67;;;;;;;18.88;78.19;101265.19;6187736;23;20463;-78
2023/07/26 09:32:06;;;;;;;6.35;2.70;;;;;;;18.35;76.28;101263.19;6162646;23;20467;-79
2023/07/26 09:34:33;;;;;;;3.95;2.67;;;;;;;17.89;78.06;101264.09;6160974;23;20093;-78
2023/07/26 09:37:00;;;;;;;3.20;2.63;;;;;;;17.87;78.54;101271.91;6188683;23;20014;-76
2023/07/26 09:39:29;;;;;;;3.90;2.78;;;;;;;17.67;78.61;101267.31;6187856;23;20018;-78
2023/07/26 09:42:08;;;;;;;3.67;2.92;;;;;;;17.60;78.94;101273.81;6162330;23;20454;-78
2023/07/26 09:44:36;;;;;;;4.00;2.85;;;;;;;17.60;77.98;101267.69;6187768;23;20021;-79
2023/07/26 09:47:04;;;;;;;3.28;3.00;;;;;;;17.56;78.35;101265.25;6160285;23;20021;-79
2023/07/26 09:49:31;;;;;;;3.30;3.10;;;;;;;17.61;78.32;101267.22;6159998;23;20021;-79
2023/07/26 09:52:01;;;;;;;4.35;2.97;;;;;;;17.67;81.81;101257.28;6161206;23;20022;-77
2023/07/26 09:54:33;;;;;;;4.68;2.95;;;;;;;17.96;80.31;101264.41;6161696;23;20024;-78
2023/07/26 09:57:05;;;;;;;4.70;3.20;;;;;;;18.62;81.76;101259.94;6188200;23;20077;-78
2023/07/26 09:59:36;;;;;;;3.78;3.40;;;;;;;19.11;76.71;101261.38;6186537;23;20049;-80
2023/07/26 10:02:09;;;;;;;3.20;2.90;;;;;;;19.52;74.04;101261.00;6160735;23;20017;-79
2023/07/26 10:04:50;;;;;;;5.70;3.20;;;;;;;19.91;73.45;101258.31;6186420;23;20017;-79
2023/07/26 10:07:17;;;;;;;6.43;2.83;;;;;;;20.23;76.44;101253.38;6187633;23;20025;-80
2023/07/26 10:09:46;;;;;;;3.38;3.08;;;;;;;20.38;73.07;101248.47;6161235;23;20037;-81
2023/07/26 10:12:14;;;;;;;3.85;3.08;;;;;;;20.30;74.07;101242.78;6161422;23;20018;-77
2023/07/26 10:14:41;;;;;;;3.42;3.13;;;;;;;20.55;73.01;101249.13;6188938;23;20016;-77
2023/07/26 10:17:10;;;;;;;6.55;3.05;;;;;;;20.48;75.26;101257.03;6188764;23;20017;-78
2023/07/26 10:19:38;;;;;;;5.35;2.53;;;;;;;20.25;71.26;101251.66;6188576;23;20032;-78
2023/07/26 10:22:06;;;;;;;2.85;2.65;;;;;;;20.04;73.62;101255.84;6189451;23;20036;-80
2023/07/26 10:24:36;;;;;;;3.72;2.85;;;;;;;19.78;73.68;101263.47;6188603;23;20017;-79
2023/07/26 10:27:04;;;;;;;3.10;2.80;;;;;;;19.60;74.36;101260.00;6188963;23;20040;-78
2023/07/26 10:29:30;;;;;;;2.75;2.55;;;;;;;19.74;77.25;101261.00;6156997;23;20445;-78
2023/07/26 10:32:04;;;;;;;4.72;2.55;;;;;;;20.17;74.28;101264.19;6158898;23;20086;-80
2023/07/26 10:34:31;;;;;;;2.55;2.42;;;;;;;20.41;70.04;101260.97;6158527;23;20021;-79
2023/07/26 10:36:57;;;;;;;2.45;2.25;;;;;;;19.99;69.70;101260.00;6159153;23;20014;-78
2023/07/26 10:39:34;;;;;;;2.20;2.00;;;;;;;19.54;70.16;101272.06;6158443;23;20093;-79
2023/07/26 10:42:04;;;;;;;2.70;2.35;;;;;;;19.36;70.59;101270.50;6158049;23;20018;-76
2023/07/26 10:44:40;;;;;;;3.40;2.08;;;;;;;19.19;69.62;101264.34;6157011;23;20436;-79
2023/07/26 10:47:07;;;;;;;3.25;2.13;;;;;;;19.34;71.95;101256.75;6132151;23;20543;-75
2023/07/26 10:49:34;;;;;;;2.65;2.30;;;;;;;19.96;69.17;101254.88;6158474;23;20045;-76
2023/07/26 10:52:02;;;;;;;3.55;2.40;;;;;;;20.27;67.23;101257.28;6159250;23;20014;-77
2023/07/26 10:54:45;;;;;;;2.25;2.10;;;;;;;20.49;69.80;101255.78;6158494;23;20089;-76
2023/07/26 10:57:26;;;;;;;4.90;2.35;;;;;;;20.63;64.91;101254.78;6159328;23;20494;-77
2023/07/26 11:00:16;;;;;;;2.20;2.10;;;;;;;20.58;64.87;101242.00;6158820;23;20105;-76
2023/07/26 11:03:00;;;;;;;4.57;2.50;;;;;;;20.56;63.54;101244.47;6159509;23;20426;-75
2023/07/26 11:05:29;;;;;;;3.22;2.30;;;;;;;20.55;64.12;101249.13;6155980;23;20026;-76
2023/07/26 11:07:58;;;;;;;3.63;2.38;;;;;;;21.02;64.41;101251.91;6157317;23;20076;-77
2023/07/26 11:10:36;;;;;;;4.03;2.25;;;;;;;21.32;59.39;101246.59;6158292;23;20018;-77
2023/07/26 11:13:09;;;;;;;2.15;2.05;;;;;;;21.35;59.17;101252.97;6158829;23;20766;-76
2023/07/26 11:15:37;;;;;;;2.05;1.95;;;;;;;21.12;58.83;101250.38;6157691;23;20028;-76
2023/07/26 11:18:24;;;;;;;3.03;2.47;;;;;;;21.18;61.06;101264.63;6158897;23;20399;-79
2023/07/26 11:20:53;;;;;;;2.05;1.95;;;;;;;21.06;58.65;101263.22;6157804;23;20148;-79
2023/07/26 11:23:23;;;;;;;2.50;2.30;;;;;;;20.57;58.57;101262.91;6157921;23;20014;-78
2023/07/26 11:25:56;;;;;;;2.92;2.25;;;;;;;20.27;60.44;101254.59;6159102;23;20093;-78
2023/07/26 11:28:24;;;;;;;3.00;2.60;;;;;;;20.72;60.50;101261.88;6167558;23;20018;-78